METAR Data
IDs: Format: Raw Decoded Include TAF

Data at: 1949 UTC 12 Dec 2018

METAR for:KMIE (Muncie/Johnson Fld, IN, US)
Text:KMIE 121853Z 21009G18KT 10SM FEW049 07/M01 A2984 RMK AO2 SLP106 T00671006
Temperature: 6.7°C ( 44°F)
Dewpoint: -0.6°C ( 31°F) [RH = 60%]
Pressure (altimeter):29.84 inches Hg (1010.6 mb) [Sea level pressure: 1010.6 mb]
Winds:from the SSW (210 degrees) at 10 MPH (9 knots; 4.6 m/s) gusting to 21 MPH (18 knots; 9.3 m/s)
Visibility:10 or more sm (16+ km)
Ceiling:at least 12,000 feet AGL
Clouds: few clouds at 4900 feet AGL